Time,TemperatureF,DewpointF,PressureIn,WindDirection,WindDirectionDegrees,WindSpeedMPH,WindSpeedGustMPH,Humidity,HourlyPrecipIn,Conditions,Clouds,dailyrainin,SolarRadiationWatts/m^2,SoftwareType,DateUTC
2013-01-11 00:09:00,30.2,23.0,30.52,WNW,288,0.0,0.0,75,0.00,,,0.00,0,weatherlink.com 1.10,2013-01-11 05:09:00,
2013-01-11 00:24:00,29.8,23.0,30.52,WNW,288,0.0,0.0,75,0.00,,,0.00,0,weatherlink.com 1.10,2013-01-11 05:24:00,
2013-01-11 00:39:00,29.1,22.0,30.52,WNW,288,0.0,1.0,76,0.00,,,0.00,0,weatherlink.com 1.10,2013-01-11 05:39:00,
2013-01-11 00:54:00,28.8,22.0,30.52,WNW,288,0.0,0.0,77,0.00,,,0.00,0,weatherlink.com 1.10,2013-01-11 05:54:00,
2013-01-11 01:09:00,28.3,22.0,30.52,WNW,288,0.0,1.0,78,0.00,,,0.00,0,weatherlink.com 1.10,2013-01-11 06:09:00,
2013-01-11 01:24:00,28.0,22.0,30.52,WNW,287,0.0,0.0,79,0.00,,,0.00,0,weatherlink.com 1.10,2013-01-11 06:24:00,
2013-01-11 01:39:00,27.6,22.0,30.50,WNW,288,0.0,1.0,80,0.00,,,0.00,0,weatherlink.com 1.10,2013-01-11 06:39:00,
2013-01-11 01:54:00,27.3,22.0,30.50,WNW,288,0.0,2.0,81,0.00,,,0.00,0,weatherlink.com 1.10,2013-01-11 06:54:00,
2013-01-11 02:09:00,27.0,22.0,30.50,WNW,288,0.0,0.0,82,0.00,,,0.00,0,weatherlink.com 1.10,2013-01-11 07:09:00,
2013-01-11 02:39:00,26.6,22.0,30.48,WNW,288,1.0,1.0,83,0.00,,,0.00,0,weatherlink.com 1.10,2013-01-11 07:39:00,
2013-01-11 02:54:00,26.6,22.0,30.47,WNW,288,0.0,0.0,84,0.00,,,0.00,0,weatherlink.com 1.10,2013-01-11 07:54:00,
2013-01-11 03:09:00,26.5,22.0,30.47,WNW,288,0.0,0.0,84,0.00,,,0.00,0,weatherlink.com 1.10,2013-01-11 08:09:00,
2013-01-11 03:24:00,26.3,22.0,30.47,WNW,287,0.0,1.0,85,0.00,,,0.00,0,weatherlink.com 1.10,2013-01-11 08:24:00,
2013-01-11 03:39:00,26.1,22.0,30.46,WNW,288,0.0,0.0,85,0.00,,,0.00,0,weatherlink.com 1.10,2013-01-11 08:39:00,
2013-01-11 03:54:00,25.9,22.0,30.46,WNW,288,0.0,0.0,85,0.00,,,0.00,0,weatherlink.com 1.10,2013-01-11 08:54:00,
2013-01-11 04:10:00,25.6,22.0,30.46,WNW,288,0.0,0.0,85,0.00,,,0.00,0,weatherlink.com 1.10,2013-01-11 09:10:00,
2013-01-11 04:25:00,25.3,22.0,30.45,WNW,288,0.0,0.0,86,0.00,,,0.00,0,weatherlink.com 1.10,2013-01-11 09:25:00,
2013-01-11 04:40:00,25.1,22.0,30.44,WNW,288,0.0,0.0,86,0.00,,,0.00,0,weatherlink.com 1.10,2013-01-11 09:40:00,
2013-01-11 04:55:00,24.8,21.0,30.44,WNW,288,0.0,0.0,86,0.00,,,0.00,0,weatherlink.com 1.10,2013-01-11 09:55:00,
2013-01-11 05:10:00,24.7,21.0,30.43,WNW,288,0.0,0.0,87,0.00,,,0.00,0,weatherlink.com 1.10,2013-01-11 10:10:00,
2013-01-11 05:25:00,24.6,21.0,30.43,WNW,288,0.0,0.0,87,0.00,,,0.00,0,weatherlink.com 1.10,2013-01-11 10:25:00,
2013-01-11 05:40:00,24.6,21.0,30.44,WNW,288,0.0,0.0,87,0.00,,,0.00,0,weatherlink.com 1.10,2013-01-11 10:40:00,
2013-01-11 05:55:00,24.6,22.0,30.43,WNW,288,0.0,0.0,88,0.00,,,0.00,0,weatherlink.com 1.10,2013-01-11 10:55:00,
2013-01-11 06:10:00,24.5,22.0,30.43,WNW,288,0.0,1.0,88,0.00,,,0.00,0,weatherlink.com 1.10,2013-01-11 11:10:00,
2013-01-11 06:25:00,24.4,21.0,30.43,WNW,288,0.0,1.0,88,0.00,,,0.00,0,weatherlink.com 1.10,2013-01-11 11:25:00,
2013-01-11 06:40:00,24.4,22.0,30.44,WNW,288,0.0,0.0,89,0.00,,,0.00,0,weatherlink.com 1.10,2013-01-11 11:40:00,
2013-01-11 06:55:00,24.4,22.0,30.43,WNW,288,0.0,0.0,89,0.00,,,0.00,0,weatherlink.com 1.10,2013-01-11 11:55:00,
2013-01-11 07:10:00,24.5,22.0,30.43,WNW,288,0.0,0.0,89,0.00,,,0.00,0,weatherlink.com 1.10,2013-01-11 12:10:00,
2013-01-11 07:25:00,24.5,22.0,30.43,WNW,288,0.0,1.0,89,0.00,,,0.00,0,weatherlink.com 1.10,2013-01-11 12:25:00,
2013-01-11 07:40:00,24.6,22.0,30.43,WNW,288,0.0,0.0,89,0.00,,,0.00,5,weatherlink.com 1.10,2013-01-11 12:40:00,
2013-01-11 07:55:00,24.7,22.0,30.43,WNW,288,0.0,0.0,90,0.00,,,0.00,11,weatherlink.com 1.10,2013-01-11 12:55:00,
2013-01-11 08:10:00,25.1,23.0,30.43,WNW,288,0.0,1.0,90,0.00,,,0.00,18,weatherlink.com 1.10,2013-01-11 13:10:00,
2013-01-11 08:25:00,25.6,23.0,30.42,WNW,288,0.0,0.0,90,0.00,,,0.00,18,weatherlink.com 1.10,2013-01-11 13:25:00,
2013-01-11 08:40:00,26.1,24.0,30.42,WNW,288,0.0,1.0,90,0.00,,,0.00,12,weatherlink.com 1.10,2013-01-11 13:40:00,
2013-01-11 08:55:00,26.6,24.0,30.41,WNW,288,0.0,0.0,90,0.00,,,0.00,16,weatherlink.com 1.10,2013-01-11 13:55:00,
2013-01-11 09:10:00,26.9,24.0,30.39,WNW,288,0.0,1.0,90,0.00,,,0.00,32,weatherlink.com 1.10,2013-01-11 14:10:00,
2013-01-11 09:25:00,27.5,25.0,30.39,WNW,288,0.0,0.0,90,0.00,,,0.00,39,weatherlink.com 1.10,2013-01-11 14:25:00,
2013-01-11 09:40:00,28.0,26.0,30.39,WNW,288,0.0,1.0,90,0.00,,,0.00,26,weatherlink.com 1.10,2013-01-11 14:40:00,
2013-01-11 09:55:00,28.9,26.0,30.39,WNW,289,2.0,3.0,89,0.00,,,0.00,83,weatherlink.com 1.10,2013-01-11 14:55:00,
2013-01-11 10:10:00,30.4,27.0,30.39,North,350,0.0,5.0,88,0.00,,,0.00,98,weatherlink.com 1.10,2013-01-11 15:10:00,
2013-01-11 10:25:00,32.1,28.0,30.38,West,264,0.0,3.0,84,0.00,,,0.00,90,weatherlink.com 1.10,2013-01-11 15:25:00,
2013-01-11 10:40:00,33.1,28.0,30.37,NNW,340,0.0,4.0,80,0.00,,,0.00,67,weatherlink.com 1.10,2013-01-11 15:40:00,
2013-01-11 10:55:00,33.8,28.0,30.36,West,270,0.0,5.0,78,0.00,,,0.00,69,weatherlink.com 1.10,2013-01-11 15:55:00,
2013-01-11 11:10:00,34.2,27.0,30.35,WNW,286,0.0,4.0,76,0.00,,,0.00,63,weatherlink.com 1.10,2013-01-11 16:10:00,
2013-01-11 11:25:00,34.4,27.0,30.33,NNW,347,0.0,2.0,74,0.00,,,0.00,51,weatherlink.com 1.10,2013-01-11 16:25:00,
2013-01-11 11:41:00,34.4,27.0,30.32,WNW,300,3.0,5.0,74,0.00,,,0.00,44,weatherlink.com 1.10,2013-01-11 16:41:00,
2013-01-11 11:55:00,34.5,27.0,30.31,South,169,0.0,2.0,74,0.00,,,0.00,35,weatherlink.com 1.10,2013-01-11 16:55:00,
2013-01-11 12:10:00,34.5,27.0,30.30,WNW,299,0.0,2.0,74,0.00,,,0.00,26,weatherlink.com 1.10,2013-01-11 17:10:00,
2013-01-11 12:26:00,34.5,27.0,30.29,South,173,0.0,6.0,73,0.00,,,0.00,32,weatherlink.com 1.10,2013-01-11 17:26:00,
2013-01-11 12:41:00,34.7,27.0,30.29,NW,317,0.0,4.0,73,0.00,,,0.00,39,weatherlink.com 1.10,2013-01-11 17:41:00,
2013-01-11 12:56:00,34.7,27.0,30.28,WNW,290,0.0,3.0,73,0.00,,,0.00,35,weatherlink.com 1.10,2013-01-11 17:56:00,
2013-01-11 13:11:00,34.8,27.0,30.28,SSW,196,0.0,5.0,72,0.00,,,0.00,39,weatherlink.com 1.10,2013-01-11 18:11:00,
2013-01-11 13:26:00,35.0,27.0,30.27,South,178,2.0,3.0,72,0.00,,,0.00,37,weatherlink.com 1.10,2013-01-11 18:26:00,
2013-01-11 13:41:00,35.1,27.0,30.27,SSE,163,1.0,3.0,72,0.00,,,0.00,70,weatherlink.com 1.10,2013-01-11 18:41:00,
2013-01-11 13:56:00,35.4,27.0,30.26,West,262,1.0,5.0,71,0.00,,,0.00,67,weatherlink.com 1.10,2013-01-11 18:56:00,
2013-01-11 14:11:00,35.7,27.0,30.26,SSW,204,1.0,4.0,71,0.00,,,0.00,58,weatherlink.com 1.10,2013-01-11 19:11:00,
2013-01-11 14:26:00,35.6,27.0,30.24,WSW,251,0.0,3.0,71,0.00,,,0.00,19,weatherlink.com 1.10,2013-01-11 19:26:00,
2013-01-11 14:41:00,35.5,27.0,30.24,West,261,0.0,4.0,71,0.00,,,0.00,32,weatherlink.com 1.10,2013-01-11 19:41:00,
2013-01-11 14:56:00,35.4,28.0,30.24,SSE,161,0.0,4.0,75,0.00,,,0.00,26,weatherlink.com 1.10,2013-01-11 19:56:00,
2013-01-11 15:13:00,34.8,29.0,30.23,North,360,1.0,3.0,79,0.01,,,0.01,26,weatherlink.com 1.10,2013-01-11 20:13:00,
2013-01-11 15:26:00,34.3,29.0,30.23,North,360,0.0,2.0,82,0.01,,,0.01,35,weatherlink.com 1.10,2013-01-11 20:26:00,
2013-01-11 15:41:00,34.2,30.0,30.23,West,279,0.0,2.0,84,0.01,,,0.01,33,weatherlink.com 1.10,2013-01-11 20:41:00,
2013-01-11 15:56:00,34.1,30.0,30.22,WSW,257,0.0,1.0,84,0.01,,,0.01,14,weatherlink.com 1.10,2013-01-11 20:56:00,
2013-01-11 16:11:00,34.0,30.0,30.21,WNW,283,0.0,3.0,84,0.00,,,0.01,7,weatherlink.com 1.10,2013-01-11 21:11:00,
2013-01-11 16:26:00,34.0,29.0,30.20,SSW,204,3.0,5.0,83,0.00,,,0.01,5,weatherlink.com 1.10,2013-01-11 21:26:00,
2013-01-11 16:41:00,34.0,29.0,30.20,SSW,202,0.0,1.0,83,0.00,,,0.01,0,weatherlink.com 1.10,2013-01-11 21:41:00,
2013-01-11 16:56:00,33.9,30.0,30.20,NW,326,0.0,2.0,84,0.00,,,0.01,0,weatherlink.com 1.10,2013-01-11 21:56:00,
2013-01-11 17:11:00,33.9,30.0,30.19,NW,326,0.0,2.0,84,0.00,,,0.01,0,weatherlink.com 1.10,2013-01-11 22:11:00,
2013-01-11 17:26:00,34.0,30.0,30.18,NNW,334,0.0,4.0,85,0.00,,,0.01,0,weatherlink.com 1.10,2013-01-11 22:26:00,
2013-01-11 17:41:00,34.0,30.0,30.17,SSW,197,2.0,3.0,86,0.00,,,0.01,0,weatherlink.com 1.10,2013-01-11 22:41:00,
2013-01-11 18:11:00,33.6,31.0,30.17,SW,225,0.0,2.0,89,0.01,,,0.02,0,weatherlink.com 1.10,2013-01-11 23:11:00,
2013-01-11 18:26:00,33.5,31.0,30.16,SW,234,0.0,2.0,90,0.02,,,0.03,0,weatherlink.com 1.10,2013-01-11 23:26:00,
2013-01-11 18:41:00,33.5,31.0,30.16,SW,223,0.0,1.0,91,0.03,,,0.04,0,weatherlink.com 1.10,2013-01-11 23:41:00,
2013-01-11 18:56:00,33.4,31.0,30.16,NNE,22,0.0,1.0,91,0.03,,,0.05,0,weatherlink.com 1.10,2013-01-11 23:56:00,
2013-01-11 19:11:00,33.3,31.0,30.15,NNE,22,0.0,2.0,92,0.03,,,0.05,0,weatherlink.com 1.10,2013-01-12 00:11:00,
2013-01-11 19:26:00,33.3,31.0,30.15,NNE,22,0.0,2.0,92,0.02,,,0.05,0,weatherlink.com 1.10,2013-01-12 00:26:00,
2013-01-11 19:41:00,33.5,32.0,30.15,NNE,19,1.0,2.0,92,0.01,,,0.05,0,weatherlink.com 1.10,2013-01-12 00:41:00,
2013-01-11 19:56:00,33.8,32.0,30.12,North,11,0.0,4.0,93,0.00,,,0.05,0,weatherlink.com 1.10,2013-01-12 00:56:00,
2013-01-11 20:11:00,34.0,32.0,30.11,South,174,0.0,1.0,93,0.00,,,0.05,0,weatherlink.com 1.10,2013-01-12 01:11:00,
2013-01-11 20:26:00,34.1,33.0,30.10,SSW,193,1.0,4.0,94,0.00,,,0.05,0,weatherlink.com 1.10,2013-01-12 01:26:00,
2013-01-11 20:41:00,34.3,33.0,30.11,NNW,340,1.0,4.0,94,0.00,,,0.05,0,weatherlink.com 1.10,2013-01-12 01:41:00,
2013-01-11 20:56:00,34.4,33.0,30.11,West,278,1.0,3.0,94,0.00,,,0.05,0,weatherlink.com 1.10,2013-01-12 01:56:00,
2013-01-11 21:11:00,34.5,33.0,30.11,NNW,329,0.0,3.0,94,0.00,,,0.05,0,weatherlink.com 1.10,2013-01-12 02:11:00,
2013-01-11 21:26:00,34.6,33.0,30.10,SSW,195,0.0,2.0,94,0.00,,,0.05,0,weatherlink.com 1.10,2013-01-12 02:26:00,
2013-01-11 21:41:00,34.7,33.0,30.12,West,278,0.0,2.0,94,0.00,,,0.05,0,weatherlink.com 1.10,2013-01-12 02:41:00,
2013-01-11 21:56:00,34.9,33.0,30.12,NW,314,0.0,2.0,94,0.00,,,0.05,0,weatherlink.com 1.10,2013-01-12 02:56:00,
2013-01-11 22:11:00,34.9,34.0,30.13,WSW,248,0.0,2.0,95,0.00,,,0.05,0,weatherlink.com 1.10,2013-01-12 03:11:00,
2013-01-11 22:26:00,34.9,34.0,30.13,WSW,248,0.0,0.0,95,0.00,,,0.05,0,weatherlink.com 1.10,2013-01-12 03:26:00,
2013-01-11 22:41:00,34.8,34.0,30.12,WSW,248,0.0,0.0,95,0.00,,,0.05,0,weatherlink.com 1.10,2013-01-12 03:41:00,
2013-01-11 22:56:00,34.8,34.0,30.12,WSW,248,1.0,1.0,95,0.00,,,0.05,0,weatherlink.com 1.10,2013-01-12 03:56:00,
2013-01-11 23:11:00,34.9,34.0,30.11,WSW,248,0.0,2.0,95,0.00,,,0.05,0,weatherlink.com 1.10,2013-01-12 04:11:00,
2013-01-11 23:26:00,35.0,34.0,30.11,West,271,0.0,3.0,95,0.00,,,0.05,0,weatherlink.com 1.10,2013-01-12 04:26:00,
2013-01-11 23:43:00,35.2,34.0,30.10,WSW,243,0.0,2.0,95,0.00,,,0.05,0,weatherlink.com 1.10,2013-01-12 04:43:00,
2013-01-11 23:56:00,35.2,34.0,30.09,WNW,288,0.0,2.0,95,0.00,,,0.05,0,weatherlink.com 1.10,2013-01-12 04:56:00,